sensor_id;sensor_type;location;lat;lon;timestamp;P1;durP1;ratioP1;P2;durP2;ratioP2
24279;SDS011;12395;42.808;23.408;2023-07-09T00:02:21;7.20;;;4.25;;
24279;SDS011;12395;42.808;23.408;2023-07-09T00:04:48;6.18;;;4.10;;
24279;SDS011;12395;42.808;23.408;2023-07-09T00:07:15;7.90;;;4.50;;
24279;SDS011;12395;42.808;23.408;2023-07-09T00:09:58;6.97;;;4.53;;
24279;SDS011;12395;42.808;23.408;2023-07-09T00:12:24;6.95;;;4.65;;
24279;SDS011;12395;42.808;23.408;2023-07-09T00:14:50;7.53;;;4.53;;
24279;SDS011;12395;42.808;23.408;2023-07-09T00:19:51;7.10;;;4.47;;
24279;SDS011;12395;42.808;23.408;2023-07-09T00:22:17;8.43;;;4.50;;
24279;SDS011;12395;42.808;23.408;2023-07-09T00:24:44;9.65;;;4.55;;
24279;SDS011;12395;42.808;23.408;2023-07-09T00:27:12;6.45;;;3.97;;
24279;SDS011;12395;42.808;23.408;2023-07-09T00:29:39;7.28;;;4.20;;
24279;SDS011;12395;42.808;23.408;2023-07-09T00:32:10;6.65;;;4.40;;
24279;SDS011;12395;42.808;23.408;2023-07-09T00:34:37;6.10;;;4.20;;
24279;SDS011;12395;42.808;23.408;2023-07-09T00:37:04;7.95;;;4.45;;
24279;SDS011;12395;42.808;23.408;2023-07-09T00:39:34;7.30;;;4.70;;
24279;SDS011;12395;42.808;23.408;2023-07-09T00:42:00;7.65;;;4.57;;
24279;SDS011;12395;42.808;23.408;2023-07-09T00:44:30;11.57;;;4.90;;
24279;SDS011;12395;42.808;23.408;2023-07-09T00:49:37;8.38;;;5.05;;
24279;SDS011;12395;42.808;23.408;2023-07-09T00:52:53;8.43;;;4.35;;
24279;SDS011;12395;42.808;23.408;2023-07-09T00:55:06;6.90;;;4.65;;
24279;SDS011;12395;42.808;23.408;2023-07-09T00:57:36;8.27;;;4.50;;
24279;SDS011;12395;42.808;23.408;2023-07-09T01:00:05;8.63;;;4.57;;
24279;SDS011;12395;42.808;23.408;2023-07-09T01:02:35;6.95;;;4.13;;
24279;SDS011;12395;42.808;23.408;2023-07-09T01:05:02;9.25;;;4.40;;
24279;SDS011;12395;42.808;23.408;2023-07-09T01:07:29;7.07;;;4.78;;
24279;SDS011;12395;42.808;23.408;2023-07-09T01:09:55;9.48;;;5.10;;
24279;SDS011;12395;42.808;23.408;2023-07-09T01:12:20;7.38;;;4.65;;
24279;SDS011;12395;42.808;23.408;2023-07-09T01:14:48;9.55;;;4.53;;
24279;SDS011;12395;42.808;23.408;2023-07-09T01:17:16;8.77;;;4.60;;
24279;SDS011;12395;42.808;23.408;2023-07-09T01:19:43;9.15;;;5.13;;
24279;SDS011;12395;42.808;23.408;2023-07-09T01:22:10;7.70;;;4.32;;
24279;SDS011;12395;42.808;23.408;2023-07-09T01:27:16;5.80;;;3.90;;
24279;SDS011;12395;42.808;23.408;2023-07-09T01:29:43;7.20;;;3.88;;
24279;SDS011;12395;42.808;23.408;2023-07-09T01:32:14;6.88;;;3.58;;
24279;SDS011;12395;42.808;23.408;2023-07-09T01:34:42;6.18;;;3.63;;
24279;SDS011;12395;42.808;23.408;2023-07-09T01:37:08;6.68;;;4.10;;
24279;SDS011;12395;42.808;23.408;2023-07-09T01:39:33;5.80;;;3.60;;
24279;SDS011;12395;42.808;23.408;2023-07-09T01:42:00;6.10;;;3.83;;
24279;SDS011;12395;42.808;23.408;2023-07-09T01:44:26;7.57;;;4.00;;
24279;SDS011;12395;42.808;23.408;2023-07-09T01:46:54;7.43;;;4.03;;
24279;SDS011;12395;42.808;23.408;2023-07-09T01:49:19;7.78;;;3.83;;
24279;SDS011;12395;42.808;23.408;2023-07-09T01:51:46;7.00;;;3.78;;
24279;SDS011;12395;42.808;23.408;2023-07-09T01:54:14;7.47;;;4.30;;
24279;SDS011;12395;42.808;23.408;2023-07-09T01:56:41;5.53;;;3.47;;
24279;SDS011;12395;42.808;23.408;2023-07-09T01:59:07;6.80;;;3.60;;
24279;SDS011;12395;42.808;23.408;2023-07-09T02:01:36;6.97;;;4.10;;
24279;SDS011;12395;42.808;23.408;2023-07-09T02:04:02;8.18;;;4.28;;
24279;SDS011;12395;42.808;23.408;2023-07-09T02:06:28;5.95;;;4.00;;
24279;SDS011;12395;42.808;23.408;2023-07-09T02:08:57;7.40;;;3.83;;
24279;SDS011;12395;42.808;23.408;2023-07-09T02:11:23;6.95;;;4.18;;
24279;SDS011;12395;42.808;23.408;2023-07-09T02:13:48;6.78;;;3.97;;
24279;SDS011;12395;42.808;23.408;2023-07-09T02:16:14;7.60;;;4.05;;
24279;SDS011;12395;42.808;23.408;2023-07-09T02:18:39;7.30;;;3.78;;
24279;SDS011;12395;42.808;23.408;2023-07-09T02:21:05;6.75;;;3.75;;
24279;SDS011;12395;42.808;23.408;2023-07-09T02:23:30;7.60;;;3.75;;
24279;SDS011;12395;42.808;23.408;2023-07-09T02:25:55;6.60;;;3.40;;
24279;SDS011;12395;42.808;23.408;2023-07-09T02:28:21;6.63;;;3.42;;
24279;SDS011;12395;42.808;23.408;2023-07-09T02:30:46;8.80;;;3.58;;
24279;SDS011;12395;42.808;23.408;2023-07-09T02:33:12;6.07;;;3.58;;
24279;SDS011;12395;42.808;23.408;2023-07-09T02:35:37;7.13;;;3.80;;
24279;SDS011;12395;42.808;23.408;2023-07-09T02:38:03;8.55;;;3.70;;
24279;SDS011;12395;42.808;23.408;2023-07-09T02:40:29;5.63;;;3.95;;
24279;SDS011;12395;42.808;23.408;2023-07-09T02:42:54;8.07;;;4.00;;
24279;SDS011;12395;42.808;23.408;2023-07-09T02:45:20;6.35;;;3.40;;
24279;SDS011;12395;42.808;23.408;2023-07-09T02:47:46;6.13;;;3.40;;
24279;SDS011;12395;42.808;23.408;2023-07-09T02:50:11;6.57;;;3.55;;
24279;SDS011;12395;42.808;23.408;2023-07-09T02:52:37;6.43;;;3.60;;
24279;SDS011;12395;42.808;23.408;2023-07-09T02:55:02;5.78;;;3.55;;
24279;SDS011;12395;42.808;23.408;2023-07-09T02:57:28;6.57;;;3.78;;
24279;SDS011;12395;42.808;23.408;2023-07-09T02:59:54;5.50;;;3.65;;
24279;SDS011;12395;42.808;23.408;2023-07-09T03:02:19;4.88;;;3.30;;
24279;SDS011;12395;42.808;23.408;2023-07-09T03:04:45;6.63;;;3.50;;
24279;SDS011;12395;42.808;23.408;2023-07-09T03:07:10;6.70;;;3.50;;
24279;SDS011;12395;42.808;23.408;2023-07-09T03:09:35;8.02;;;3.58;;
24279;SDS011;12395;42.808;23.408;2023-07-09T03:12:01;6.53;;;3.22;;
24279;SDS011;12395;42.808;23.408;2023-07-09T03:14:26;6.05;;;3.47;;
24279;SDS011;12395;42.808;23.408;2023-07-09T03:16:52;8.38;;;3.40;;
24279;SDS011;12395;42.808;23.408;2023-07-09T03:19:17;5.38;;;3.33;;
24279;SDS011;12395;42.808;23.408;2023-07-09T03:21:44;6.35;;;3.40;;
24279;SDS011;12395;42.808;23.408;2023-07-09T03:24:09;7.63;;;3.35;;
24279;SDS011;12395;42.808;23.408;2023-07-09T03:26:35;7.88;;;3.35;;
24279;SDS011;12395;42.808;23.408;2023-07-09T03:29:00;5.15;;;3.33;;
24279;SDS011;12395;42.808;23.408;2023-07-09T03:31:26;7.70;;;3.35;;
24279;SDS011;12395;42.808;23.408;2023-07-09T03:33:52;6.53;;;3.67;;
24279;SDS011;12395;42.808;23.408;2023-07-09T03:36:17;7.47;;;3.30;;
24279;SDS011;12395;42.808;23.408;2023-07-09T03:38:44;6.22;;;3.35;;
24279;SDS011;12395;42.808;23.408;2023-07-09T03:41:10;6.82;;;3.65;;
24279;SDS011;12395;42.808;23.408;2023-07-09T03:43:35;7.40;;;3.20;;
24279;SDS011;12395;42.808;23.408;2023-07-09T03:46:01;4.88;;;3.30;;
24279;SDS011;12395;42.808;23.408;2023-07-09T03:48:26;5.78;;;3.25;;
24279;SDS011;12395;42.808;23.408;2023-07-09T03:50:52;5.78;;;3.55;;
24279;SDS011;12395;42.808;23.408;2023-07-09T03:53:17;6.57;;;3.35;;
24279;SDS011;12395;42.808;23.408;2023-07-09T03:55:45;4.70;;;3.20;;
24279;SDS011;12395;42.808;23.408;2023-07-09T03:58:11;7.35;;;3.70;;
24279;SDS011;12395;42.808;23.408;2023-07-09T04:00:37;6.32;;;3.10;;
24279;SDS011;12395;42.808;23.408;2023-07-09T04:03:02;6.28;;;3.10;;
24279;SDS011;12395;42.808;23.408;2023-07-09T04:05:27;6.55;;;3.30;;
24279;SDS011;12395;42.808;23.408;2023-07-09T04:07:53;5.90;;;3.70;;
24279;SDS011;12395;42.808;23.408;2023-07-09T04:10:19;6.30;;;3.78;;
24279;SDS011;12395;42.808;23.408;2023-07-09T04:12:45;5.82;;;3.28;;
24279;SDS011;12395;42.808;23.408;2023-07-09T04:15:11;5.70;;;3.55;;
24279;SDS011;12395;42.808;23.408;2023-07-09T04:17:38;4.83;;;3.27;;
24279;SDS011;12395;42.808;23.408;2023-07-09T04:20:04;7.65;;;3.70;;
24279;SDS011;12395;42.808;23.408;2023-07-09T04:22:34;5.93;;;3.50;;
24279;SDS011;12395;42.808;23.408;2023-07-09T04:25:00;4.13;;;2.85;;
24279;SDS011;12395;42.808;23.408;2023-07-09T04:27:27;4.97;;;3.10;;
24279;SDS011;12395;42.808;23.408;2023-07-09T04:29:53;4.63;;;2.70;;
24279;SDS011;12395;42.808;23.408;2023-07-09T04:32:19;4.05;;;2.90;;
24279;SDS011;12395;42.808;23.408;2023-07-09T04:34:45;4.43;;;2.50;;
24279;SDS011;12395;42.808;23.408;2023-07-09T04:37:11;3.63;;;2.70;;
24279;SDS011;12395;42.808;23.408;2023-07-09T04:39:37;4.50;;;2.95;;
24279;SDS011;12395;42.808;23.408;2023-07-09T04:42:04;5.20;;;3.40;;
24279;SDS011;12395;42.808;23.408;2023-07-09T04:44:40;4.10;;;2.90;;
24279;SDS011;12395;42.808;23.408;2023-07-09T04:47:06;5.57;;;3.35;;
24279;SDS011;12395;42.808;23.408;2023-07-09T04:49:32;6.47;;;3.47;;
24279;SDS011;12395;42.808;23.408;2023-07-09T04:51:57;5.20;;;3.40;;
24279;SDS011;12395;42.808;23.408;2023-07-09T04:54:24;5.80;;;3.53;;
24279;SDS011;12395;42.808;23.408;2023-07-09T04:56:50;5.53;;;3.72;;
24279;SDS011;12395;42.808;23.408;2023-07-09T04:59:16;5.80;;;3.60;;
24279;SDS011;12395;42.808;23.408;2023-07-09T05:01:41;5.38;;;3.63;;
24279;SDS011;12395;42.808;23.408;2023-07-09T05:04:07;6.80;;;3.70;;
24279;SDS011;12395;42.808;23.408;2023-07-09T05:06:34;7.30;;;3.75;;
24279;SDS011;12395;42.808;23.408;2023-07-09T05:11:25;5.03;;;3.67;;
24279;SDS011;12395;42.808;23.408;2023-07-09T05:13:51;6.32;;;4.20;;
24279;SDS011;12395;42.808;23.408;2023-07-09T05:16:16;5.05;;;3.30;;
24279;SDS011;12395;42.808;23.408;2023-07-09T05:18:42;7.68;;;3.80;;
24279;SDS011;12395;42.808;23.408;2023-07-09T05:21:07;6.32;;;4.65;;
24279;SDS011;12395;42.808;23.408;2023-07-09T05:23:33;8.48;;;4.72;;
24279;SDS011;12395;42.808;23.408;2023-07-09T05:25:59;10.07;;;4.57;;
24279;SDS011;12395;42.808;23.408;2023-07-09T05:28:26;9.25;;;4.90;;
24279;SDS011;12395;42.808;23.408;2023-07-09T05:30:52;12.60;;;5.10;;
24279;SDS011;12395;42.808;23.408;2023-07-09T05:33:18;7.93;;;4.70;;
24279;SDS011;12395;42.808;23.408;2023-07-09T05:35:43;7.13;;;4.78;;
24279;SDS011;12395;42.808;23.408;2023-07-09T05:38:09;8.35;;;4.82;;
24279;SDS011;12395;42.808;23.408;2023-07-09T05:40:35;7.53;;;4.43;;
24279;SDS011;12395;42.808;23.408;2023-07-09T05:43:00;11.27;;;4.43;;
24279;SDS011;12395;42.808;23.408;2023-07-09T05:45:26;9.75;;;4.50;;
24279;SDS011;12395;42.808;23.408;2023-07-09T05:47:51;6.20;;;4.07;;
24279;SDS011;12395;42.808;23.408;2023-07-09T05:50:16;7.18;;;4.10;;
24279;SDS011;12395;42.808;23.408;2023-07-09T05:52:42;7.07;;;3.60;;
24279;SDS011;12395;42.808;23.408;2023-07-09T05:55:07;7.20;;;4.57;;
24279;SDS011;12395;42.808;23.408;2023-07-09T05:57:33;7.65;;;4.78;;
24279;SDS011;12395;42.808;23.408;2023-07-09T05:59:58;8.27;;;4.85;;
24279;SDS011;12395;42.808;23.408;2023-07-09T06:02:23;6.68;;;4.55;;
24279;SDS011;12395;42.808;23.408;2023-07-09T06:04:49;8.25;;;5.13;;
24279;SDS011;12395;42.808;23.408;2023-07-09T06:07:14;7.97;;;4.70;;
24279;SDS011;12395;42.808;23.408;2023-07-09T06:09:40;7.68;;;4.57;;
24279;SDS011;12395;42.808;23.408;2023-07-09T06:12:06;6.05;;;4.00;;
24279;SDS011;12395;42.808;23.408;2023-07-09T06:14:33;7.80;;;3.53;;
24279;SDS011;12395;42.808;23.408;2023-07-09T06:16:58;6.10;;;4.20;;
24279;SDS011;12395;42.808;23.408;2023-07-09T06:19:24;4.78;;;3.45;;
24279;SDS011;12395;42.808;23.408;2023-07-09T06:21:50;8.27;;;4.20;;
24279;SDS011;12395;42.808;23.408;2023-07-09T06:24:15;6.07;;;4.05;;
24279;SDS011;12395;42.808;23.408;2023-07-09T06:26:41;6.57;;;3.90;;
24279;SDS011;12395;42.808;23.408;2023-07-09T06:29:06;7.30;;;4.63;;
24279;SDS011;12395;42.808;23.408;2023-07-09T06:31:32;7.05;;;4.30;;
24279;SDS011;12395;42.808;23.408;2023-07-09T06:33:57;7.25;;;4.30;;
24279;SDS011;12395;42.808;23.408;2023-07-09T06:36:23;5.53;;;4.13;;
24279;SDS011;12395;42.808;23.408;2023-07-09T06:38:48;5.72;;;3.88;;
24279;SDS011;12395;42.808;23.408;2023-07-09T06:41:14;7.80;;;3.72;;
24279;SDS011;12395;42.808;23.408;2023-07-09T06:43:40;5.80;;;3.75;;
24279;SDS011;12395;42.808;23.408;2023-07-09T06:46:06;5.45;;;3.90;;
24279;SDS011;12395;42.808;23.408;2023-07-09T06:48:34;6.07;;;3.67;;
24279;SDS011;12395;42.808;23.408;2023-07-09T06:51:00;6.97;;;4.00;;
24279;SDS011;12395;42.808;23.408;2023-07-09T06:53:26;4.90;;;3.75;;
24279;SDS011;12395;42.808;23.408;2023-07-09T06:55:53;7.80;;;4.07;;
24279;SDS011;12395;42.808;23.408;2023-07-09T06:58:20;5.88;;;3.38;;
24279;SDS011;12395;42.808;23.408;2023-07-09T07:00:48;7.13;;;4.13;;
24279;SDS011;12395;42.808;23.408;2023-07-09T07:03:14;6.03;;;4.10;;
24279;SDS011;12395;42.808;23.408;2023-07-09T07:05:46;6.93;;;4.00;;
24279;SDS011;12395;42.808;23.408;2023-07-09T07:08:14;5.68;;;3.72;;
24279;SDS011;12395;42.808;23.408;2023-07-09T07:10:41;6.90;;;3.50;;
24279;SDS011;12395;42.808;23.408;2023-07-09T07:13:06;8.48;;;4.00;;
24279;SDS011;12395;42.808;23.408;2023-07-09T07:15:32;6.82;;;3.90;;
24279;SDS011;12395;42.808;23.408;2023-07-09T07:17:57;6.18;;;3.38;;
24279;SDS011;12395;42.808;23.408;2023-07-09T07:20:23;6.53;;;3.70;;
24279;SDS011;12395;42.808;23.408;2023-07-09T07:22:48;5.97;;;3.33;;
24279;SDS011;12395;42.808;23.408;2023-07-09T07:25:16;6.68;;;3.40;;
24279;SDS011;12395;42.808;23.408;2023-07-09T07:27:42;5.32;;;3.30;;
24279;SDS011;12395;42.808;23.408;2023-07-09T07:30:07;7.00;;;3.50;;
24279;SDS011;12395;42.808;23.408;2023-07-09T07:32:37;6.55;;;3.35;;
24279;SDS011;12395;42.808;23.408;2023-07-09T07:35:07;5.43;;;3.28;;
24279;SDS011;12395;42.808;23.408;2023-07-09T07:37:32;5.57;;;3.30;;
24279;SDS011;12395;42.808;23.408;2023-07-09T07:39:58;5.10;;;3.15;;
24279;SDS011;12395;42.808;23.408;2023-07-09T07:42:23;6.90;;;3.17;;
24279;SDS011;12395;42.808;23.408;2023-07-09T07:44:49;3.78;;;2.67;;
24279;SDS011;12395;42.808;23.408;2023-07-09T07:47:14;6.28;;;3.00;;
24279;SDS011;12395;42.808;23.408;2023-07-09T07:49:40;6.43;;;3.10;;
24279;SDS011;12395;42.808;23.408;2023-07-09T07:52:06;5.45;;;3.05;;
24279;SDS011;12395;42.808;23.408;2023-07-09T07:54:32;6.68;;;3.40;;
24279;SDS011;12395;42.808;23.408;2023-07-09T07:56:57;5.07;;;3.13;;
24279;SDS011;12395;42.808;23.408;2023-07-09T07:59:24;4.72;;;3.00;;
24279;SDS011;12395;42.808;23.408;2023-07-09T08:01:49;4.65;;;3.20;;
24279;SDS011;12395;42.808;23.408;2023-07-09T08:04:15;6.15;;;3.00;;
24279;SDS011;12395;42.808;23.408;2023-07-09T08:06:40;4.97;;;3.40;;
24279;SDS011;12395;42.808;23.408;2023-07-09T08:09:06;4.53;;;3.30;;
24279;SDS011;12395;42.808;23.408;2023-07-09T08:11:31;7.00;;;3.60;;
24279;SDS011;12395;42.808;23.408;2023-07-09T08:13:57;6.53;;;3.70;;
24279;SDS011;12395;42.808;23.408;2023-07-09T08:16:23;5.03;;;3.30;;
24279;SDS011;12395;42.808;23.408;2023-07-09T08:18:48;7.30;;;3.45;;
24279;SDS011;12395;42.808;23.408;2023-07-09T08:21:14;5.75;;;3.33;;
24279;SDS011;12395;42.808;23.408;2023-07-09T08:23:39;6.75;;;3.83;;
24279;SDS011;12395;42.808;23.408;2023-07-09T08:26:05;6.15;;;3.60;;
24279;SDS011;12395;42.808;23.408;2023-07-09T08:28:31;6.28;;;3.50;;
24279;SDS011;12395;42.808;23.408;2023-07-09T08:30:57;5.90;;;3.40;;
24279;SDS011;12395;42.808;23.408;2023-07-09T08:33:23;6.75;;;3.33;;
24279;SDS011;12395;42.808;23.408;2023-07-09T08:35:49;5.88;;;3.75;;
24279;SDS011;12395;42.808;23.408;2023-07-09T08:38:15;6.25;;;3.83;;
24279;SDS011;12395;42.808;23.408;2023-07-09T08:40:41;8.50;;;3.40;;
24279;SDS011;12395;42.808;23.408;2023-07-09T08:43:17;5.47;;;3.40;;
24279;SDS011;12395;42.808;23.408;2023-07-09T08:45:57;6.22;;;3.33;;
24279;SDS011;12395;42.808;23.408;2023-07-09T08:51:10;6.00;;;3.40;;
24279;SDS011;12395;42.808;23.408;2023-07-09T08:53:50;6.85;;;3.55;;
24279;SDS011;12395;42.808;23.408;2023-07-09T08:56:22;6.15;;;3.20;;
24279;SDS011;12395;42.808;23.408;2023-07-09T08:58:50;5.28;;;3.30;;
24279;SDS011;12395;42.808;23.408;2023-07-09T09:01:19;7.50;;;3.40;;
24279;SDS011;12395;42.808;23.408;2023-07-09T09:03:52;4.85;;;3.03;;
24279;SDS011;12395;42.808;23.408;2023-07-09T09:06:21;4.55;;;3.20;;
24279;SDS011;12395;42.808;23.408;2023-07-09T09:15:02;7.63;;;3.45;;
24279;SDS011;12395;42.808;23.408;2023-07-09T09:17:34;5.82;;;3.40;;
24279;SDS011;12395;42.808;23.408;2023-07-09T09:20:04;5.50;;;3.05;;
24279;SDS011;12395;42.808;23.408;2023-07-09T09:22:50;5.07;;;3.13;;
24279;SDS011;12395;42.808;23.408;2023-07-09T09:25:40;6.97;;;3.30;;
24279;SDS011;12395;42.808;23.408;2023-07-09T09:28:09;6.63;;;3.25;;
24279;SDS011;12395;42.808;23.408;2023-07-09T09:30:34;5.32;;;3.15;;
24279;SDS011;12395;42.808;23.408;2023-07-09T09:33:00;6.45;;;3.25;;
24279;SDS011;12395;42.808;23.408;2023-07-09T09:37:56;4.80;;;3.20;;
24279;SDS011;12395;42.808;23.408;2023-07-09T09:40:23;6.10;;;3.20;;
24279;SDS011;12395;42.808;23.408;2023-07-09T09:42:50;6.65;;;3.40;;
24279;SDS011;12395;42.808;23.408;2023-07-09T09:45:19;7.25;;;3.40;;
24279;SDS011;12395;42.808;23.408;2023-07-09T09:47:47;5.60;;;3.20;;
24279;SDS011;12395;42.808;23.408;2023-07-09T09:50:14;7.85;;;3.15;;
24279;SDS011;12395;42.808;23.408;2023-07-09T09:52:44;5.05;;;3.03;;
24279;SDS011;12395;42.808;23.408;2023-07-09T09:55:25;7.22;;;3.40;;
24279;SDS011;12395;42.808;23.408;2023-07-09T09:57:54;7.85;;;3.33;;
24279;SDS011;12395;42.808;23.408;2023-07-09T10:00:24;7.40;;;3.17;;
24279;SDS011;12395;42.808;23.408;2023-07-09T10:03:01;6.97;;;3.60;;
24279;SDS011;12395;42.808;23.408;2023-07-09T10:05:33;5.18;;;3.40;;
24279;SDS011;12395;42.808;23.408;2023-07-09T10:08:08;6.50;;;3.40;;
24279;SDS011;12395;42.808;23.408;2023-07-09T10:10:37;6.47;;;3.33;;
24279;SDS011;12395;42.808;23.408;2023-07-09T10:15:51;6.18;;;3.50;;
24279;SDS011;12395;42.808;23.408;2023-07-09T10:18:42;6.45;;;3.28;;
24279;SDS011;12395;42.808;23.408;2023-07-09T10:26:40;4.93;;;3.17;;
24279;SDS011;12395;42.808;23.408;2023-07-09T10:35:11;4.75;;;3.28;;
24279;SDS011;12395;42.808;23.408;2023-07-09T10:37:51;8.25;;;3.58;;
24279;SDS011;12395;42.808;23.408;2023-07-09T10:40:40;5.65;;;3.28;;
24279;SDS011;12395;42.808;23.408;2023-07-09T10:43:12;5.53;;;3.25;;
24279;SDS011;12395;42.808;23.408;2023-07-09T10:45:43;5.13;;;3.20;;
24279;SDS011;12395;42.808;23.408;2023-07-09T10:48:40;5.05;;;3.00;;
24279;SDS011;12395;42.808;23.408;2023-07-09T10:51:17;5.97;;;3.33;;
24279;SDS011;12395;42.808;23.408;2023-07-09T10:53:50;4.93;;;3.20;;
24279;SDS011;12395;42.808;23.408;2023-07-09T10:56:22;4.53;;;2.92;;
24279;SDS011;12395;42.808;23.408;2023-07-09T11:01:43;5.63;;;3.28;;
24279;SDS011;12395;42.808;23.408;2023-07-09T11:04:58;4.28;;;3.08;;
24279;SDS011;12395;42.808;23.408;2023-07-09T11:06:59;7.13;;;3.70;;
24279;SDS011;12395;42.808;23.408;2023-07-09T11:09:30;5.28;;;3.30;;
24279;SDS011;12395;42.808;23.408;2023-07-09T11:12:21;5.00;;;3.28;;
24279;SDS011;12395;42.808;23.408;2023-07-09T11:14:54;4.35;;;2.95;;
24279;SDS011;12395;42.808;23.408;2023-07-09T11:17:24;6.13;;;3.30;;
24279;SDS011;12395;42.808;23.408;2023-07-09T11:19:56;5.68;;;3.22;;
24279;SDS011;12395;42.808;23.408;2023-07-09T11:22:40;5.07;;;3.20;;
24279;SDS011;12395;42.808;23.408;2023-07-09T11:25:10;5.18;;;3.10;;
24279;SDS011;12395;42.808;23.408;2023-07-09T11:27:50;4.15;;;3.03;;
24279;SDS011;12395;42.808;23.408;2023-07-09T11:30:22;5.13;;;3.20;;
24279;SDS011;12395;42.808;23.408;2023-07-09T11:32:53;4.97;;;3.00;;
24279;SDS011;12395;42.808;23.408;2023-07-09T11:35:26;3.90;;;3.10;;
24279;SDS011;12395;42.808;23.408;2023-07-09T11:37:53;4.43;;;2.97;;
24279;SDS011;12395;42.808;23.408;2023-07-09T11:42:52;5.20;;;2.90;;
24279;SDS011;12395;42.808;23.408;2023-07-09T11:45:23;3.78;;;2.70;;
24279;SDS011;12395;42.808;23.408;2023-07-09T11:50:46;5.43;;;3.08;;
24279;SDS011;12395;42.808;23.408;2023-07-09T11:56:01;5.53;;;3.05;;
24279;SDS011;12395;42.808;23.408;2023-07-09T11:58:27;6.50;;;3.00;;
24279;SDS011;12395;42.808;23.408;2023-07-09T12:00:56;4.65;;;3.00;;
24279;SDS011;12395;42.808;23.408;2023-07-09T12:03:25;3.67;;;2.80;;
24279;SDS011;12395;42.808;23.408;2023-07-09T12:05:54;5.68;;;2.90;;
24279;SDS011;12395;42.808;23.408;2023-07-09T12:08:28;4.95;;;2.60;;
24279;SDS011;12395;42.808;23.408;2023-07-09T12:10:58;6.10;;;2.83;;
24279;SDS011;12395;42.808;23.408;2023-07-09T12:13:23;5.03;;;2.80;;
24279;SDS011;12395;42.808;23.408;2023-07-09T12:15:48;4.70;;;2.70;;
24279;SDS011;12395;42.808;23.408;2023-07-09T12:18:14;5.93;;;2.92;;
24279;SDS011;12395;42.808;23.408;2023-07-09T12:20:41;4.88;;;3.10;;
24279;SDS011;12395;42.808;23.408;2023-07-09T12:23:23;4.18;;;2.80;;
24279;SDS011;12395;42.808;23.408;2023-07-09T12:25:52;4.47;;;3.20;;
24279;SDS011;12395;42.808;23.408;2023-07-09T12:28:19;4.17;;;2.90;;
24279;SDS011;12395;42.808;23.408;2023-07-09T12:30:46;4.68;;;3.10;;
24279;SDS011;12395;42.808;23.408;2023-07-09T12:33:15;5.95;;;3.42;;
24279;SDS011;12395;42.808;23.408;2023-07-09T12:35:42;5.28;;;2.92;;
24279;SDS011;12395;42.808;23.408;2023-07-09T12:38:15;4.13;;;3.00;;
24279;SDS011;12395;42.808;23.408;2023-07-09T12:40:45;3.90;;;2.80;;
24279;SDS011;12395;42.808;23.408;2023-07-09T12:43:12;4.55;;;3.05;;
24279;SDS011;12395;42.808;23.408;2023-07-09T12:45:37;4.30;;;2.97;;
24279;SDS011;12395;42.808;23.408;2023-07-09T12:48:03;6.25;;;3.22;;
24279;SDS011;12395;42.808;23.408;2023-07-09T12:50:33;4.93;;;2.90;;
24279;SDS011;12395;42.808;23.408;2023-07-09T12:53:11;4.68;;;2.88;;
24279;SDS011;12395;42.808;23.408;2023-07-09T12:55:40;4.35;;;2.85;;
24279;SDS011;12395;42.808;23.408;2023-07-09T12:58:13;4.85;;;2.92;;
24279;SDS011;12395;42.808;23.408;2023-07-09T13:01:05;5.63;;;3.25;;
24279;SDS011;12395;42.808;23.408;2023-07-09T13:03:39;5.22;;;3.13;;
24279;SDS011;12395;42.808;23.408;2023-07-09T13:09:00;4.50;;;2.67;;
24279;SDS011;12395;42.808;23.408;2023-07-09T13:11:31;5.50;;;2.90;;
24279;SDS011;12395;42.808;23.408;2023-07-09T13:14:01;5.70;;;3.67;;
24279;SDS011;12395;42.808;23.408;2023-07-09T13:16:30;4.68;;;2.85;;
24279;SDS011;12395;42.808;23.408;2023-07-09T13:19:02;4.03;;;2.88;;
24279;SDS011;12395;42.808;23.408;2023-07-09T13:21:28;7.78;;;3.13;;
24279;SDS011;12395;42.808;23.408;2023-07-09T13:23:55;4.32;;;3.15;;
24279;SDS011;12395;42.808;23.408;2023-07-09T13:26:20;5.30;;;3.05;;
24279;SDS011;12395;42.808;23.408;2023-07-09T13:28:46;4.07;;;3.42;;
24279;SDS011;12395;42.808;23.408;2023-07-09T13:31:15;4.40;;;2.92;;
24279;SDS011;12395;42.808;23.408;2023-07-09T13:33:43;3.60;;;3.00;;
24279;SDS011;12395;42.808;23.408;2023-07-09T13:36:09;6.07;;;3.05;;
24279;SDS011;12395;42.808;23.408;2023-07-09T13:38:35;7.20;;;3.30;;
24279;SDS011;12395;42.808;23.408;2023-07-09T13:41:09;4.15;;;3.00;;
24279;SDS011;12395;42.808;23.408;2023-07-09T13:43:37;5.70;;;3.30;;
24279;SDS011;12395;42.808;23.408;2023-07-09T13:46:06;4.43;;;3.13;;
24279;SDS011;12395;42.808;23.408;2023-07-09T13:48:33;4.25;;;3.20;;
24279;SDS011;12395;42.808;23.408;2023-07-09T13:50:59;5.15;;;3.10;;
24279;SDS011;12395;42.808;23.408;2023-07-09T13:53:30;4.03;;;2.80;;
24279;SDS011;12395;42.808;23.408;2023-07-09T13:55:57;5.00;;;3.10;;
24279;SDS011;12395;42.808;23.408;2023-07-09T13:58:24;6.00;;;3.00;;
24279;SDS011;12395;42.808;23.408;2023-07-09T14:00:56;4.72;;;3.28;;
24279;SDS011;12395;42.808;23.408;2023-07-09T14:03:25;4.70;;;3.45;;
24279;SDS011;12395;42.808;23.408;2023-07-09T14:05:55;3.72;;;3.00;;
24279;SDS011;12395;42.808;23.408;2023-07-09T14:08:20;8.27;;;3.22;;
24279;SDS011;12395;42.808;23.408;2023-07-09T14:10:46;6.10;;;2.97;;
24279;SDS011;12395;42.808;23.408;2023-07-09T14:13:16;4.13;;;2.80;;
24279;SDS011;12395;42.808;23.408;2023-07-09T14:15:43;5.65;;;3.30;;
24279;SDS011;12395;42.808;23.408;2023-07-09T14:18:13;7.03;;;3.28;;
24279;SDS011;12395;42.808;23.408;2023-07-09T14:20:42;4.68;;;3.08;;
24279;SDS011;12395;42.808;23.408;2023-07-09T14:23:10;4.35;;;3.10;;
24279;SDS011;12395;42.808;23.408;2023-07-09T14:25:37;5.40;;;3.28;;
24279;SDS011;12395;42.808;23.408;2023-07-09T14:28:04;6.78;;;3.10;;
24279;SDS011;12395;42.808;23.408;2023-07-09T14:30:33;4.05;;;3.00;;
24279;SDS011;12395;42.808;23.408;2023-07-09T14:32:59;5.07;;;2.90;;
24279;SDS011;12395;42.808;23.408;2023-07-09T14:35:25;4.47;;;2.80;;
24279;SDS011;12395;42.808;23.408;2023-07-09T14:37:52;5.80;;;2.92;;
24279;SDS011;12395;42.808;23.408;2023-07-09T14:40:19;5.45;;;2.90;;
24279;SDS011;12395;42.808;23.408;2023-07-09T14:42:46;7.15;;;3.10;;
24279;SDS011;12395;42.808;23.408;2023-07-09T14:45:20;3.72;;;2.90;;
24279;SDS011;12395;42.808;23.408;2023-07-09T14:47:48;4.05;;;2.90;;
24279;SDS011;12395;42.808;23.408;2023-07-09T14:50:14;5.80;;;3.20;;
24279;SDS011;12395;42.808;23.408;2023-07-09T14:52:41;4.63;;;2.93;;
24279;SDS011;12395;42.808;23.408;2023-07-09T14:55:13;4.97;;;2.90;;
24279;SDS011;12395;42.808;23.408;2023-07-09T14:57:40;4.72;;;3.20;;
24279;SDS011;12395;42.808;23.408;2023-07-09T15:00:05;4.18;;;3.20;;
24279;SDS011;12395;42.808;23.408;2023-07-09T15:05:02;5.32;;;3.17;;
24279;SDS011;12395;42.808;23.408;2023-07-09T15:07:29;5.90;;;3.30;;
24279;SDS011;12395;42.808;23.408;2023-07-09T15:12:28;4.50;;;3.10;;
24279;SDS011;12395;42.808;23.408;2023-07-09T15:15:39;5.15;;;3.30;;
24279;SDS011;12395;42.808;23.408;2023-07-09T15:17:53;6.72;;;3.38;;
24279;SDS011;12395;42.808;23.408;2023-07-09T15:20:21;4.15;;;3.08;;
24279;SDS011;12395;42.808;23.408;2023-07-09T15:22:49;5.95;;;3.28;;
24279;SDS011;12395;42.808;23.408;2023-07-09T15:25:20;5.85;;;3.25;;
24279;SDS011;12395;42.808;23.408;2023-07-09T15:27:47;4.63;;;3.42;;
24279;SDS011;12395;42.808;23.408;2023-07-09T15:30:17;5.53;;;3.30;;
24279;SDS011;12395;42.808;23.408;2023-07-09T15:32:45;4.57;;;3.50;;
24279;SDS011;12395;42.808;23.408;2023-07-09T15:35:13;4.82;;;3.42;;